createdAt,value
2022-10-24T00:01:11.442Z,5.55
2022-10-24T00:03:38.784Z,5.55
2022-10-24T00:06:07.557Z,6.63
2022-10-24T00:08:35.862Z,6.22
2022-10-24T00:11:08.115Z,6.38
2022-10-24T00:13:34.943Z,5.78
2022-10-24T00:16:01.693Z,5.47
2022-10-24T00:18:28.465Z,5.05
2022-10-24T00:20:55.221Z,5.63
2022-10-24T00:23:21.962Z,5.68
2022-10-24T00:25:48.745Z,5.80
2022-10-24T00:28:15.500Z,5.13
2022-10-24T00:30:42.257Z,6.00
2022-10-24T00:33:09.110Z,5.35
2022-10-24T00:35:35.897Z,5.82
2022-10-24T00:38:02.680Z,5.75
2022-10-24T00:40:29.493Z,5.70
2022-10-24T00:42:56.237Z,5.20
2022-10-24T00:45:40.519Z,6.13
2022-10-24T00:48:27.891Z,5.10
2022-10-24T00:51:00.746Z,6.20
2022-10-24T00:53:29.730Z,5.80
2022-10-24T00:56:00.854Z,5.57
2022-10-24T00:58:30.870Z,5.75
2022-10-24T01:00:58.361Z,5.80
2022-10-24T01:03:25.516Z,5.55
2022-10-24T01:06:34.134Z,6.15
2022-10-24T01:09:11.231Z,5.78
2022-10-24T01:12:03.102Z,5.88
2022-10-24T01:15:11.801Z,5.88
2022-10-24T01:17:52.231Z,6.15
2022-10-24T01:20:24.948Z,6.03
2022-10-24T01:23:15.440Z,6.45
2022-10-24T01:25:51.145Z,5.95
2022-10-24T01:28:19.329Z,5.75
2022-10-24T01:30:51.211Z,6.18
2022-10-24T01:33:33.773Z,6.90
2022-10-24T01:36:13.844Z,6.82
2022-10-24T01:39:03.706Z,6.20
2022-10-24T01:41:33.211Z,7.43
2022-10-24T01:44:09.037Z,6.63
2022-10-24T01:49:20.117Z,6.80
2022-10-24T01:51:52.001Z,7.50
2022-10-24T01:54:19.700Z,7.13
2022-10-24T01:56:46.547Z,6.78
2022-10-24T01:59:28.712Z,6.97
2022-10-24T02:02:06.556Z,8.35
2022-10-24T02:04:36.053Z,7.45
2022-10-24T02:07:07.560Z,6.93
2022-10-24T02:09:38.235Z,7.38
2022-10-24T02:12:10.729Z,7.22
2022-10-24T02:14:44.766Z,7.80
2022-10-24T02:17:11.727Z,7.35
2022-10-24T02:19:38.565Z,6.00
2022-10-24T02:22:21.655Z,6.60
2022-10-24T02:24:59.886Z,7.45
2022-10-24T02:27:43.596Z,7.15
2022-10-24T02:30:21.896Z,8.10
2022-10-24T02:32:56.452Z,7.90
2022-10-24T02:35:27.563Z,7.25
2022-10-24T02:38:00.024Z,7.88
2022-10-24T02:40:27.174Z,7.15
2022-10-24T02:42:58.436Z,7.88
2022-10-24T02:45:26.517Z,7.55
2022-10-24T02:47:57.895Z,7.88
2022-10-24T02:50:25.304Z,7.97
2022-10-24T02:52:52.144Z,8.93
2022-10-24T02:55:19.111Z,8.18
2022-10-24T02:57:45.856Z,7.72
2022-10-24T03:00:13.135Z,7.80
2022-10-24T03:02:39.890Z,8.55
2022-10-24T03:05:06.962Z,7.65
2022-10-24T03:07:33.788Z,7.78
2022-10-24T03:10:00.648Z,7.65
2022-10-24T03:12:27.476Z,7.75
2022-10-24T03:14:54.344Z,8.90
2022-10-24T03:17:21.913Z,7.78
2022-10-24T03:19:48.756Z,7.85
2022-10-24T03:22:15.552Z,7.47
2022-10-24T03:24:44.500Z,8.38
2022-10-24T03:27:21.626Z,8.13
2022-10-24T03:29:48.383Z,7.60
2022-10-24T03:32:15.287Z,7.70
2022-10-24T03:34:42.194Z,7.95
2022-10-24T03:37:09.086Z,8.43
2022-10-24T03:39:35.974Z,8.00
2022-10-24T03:42:02.775Z,8.27
2022-10-24T03:44:29.849Z,8.35
2022-10-24T03:46:56.565Z,8.77
2022-10-24T03:49:23.362Z,8.73
2022-10-24T03:51:50.102Z,7.75
2022-10-24T03:54:16.904Z,8.18
2022-10-24T03:56:45.073Z,8.20
2022-10-24T03:59:11.809Z,9.35
2022-10-24T04:01:38.712Z,8.38
2022-10-24T04:04:05.745Z,8.68
2022-10-24T04:06:35.623Z,8.45
2022-10-24T04:09:03.919Z,9.02
2022-10-24T04:11:30.906Z,8.52
2022-10-24T04:13:57.937Z,9.82
2022-10-24T04:16:24.786Z,9.18
2022-10-24T04:18:51.610Z,9.23
2022-10-24T04:21:21.520Z,8.98
2022-10-24T04:23:48.993Z,9.43
2022-10-24T04:26:18.512Z,9.95
2022-10-24T04:28:47.012Z,8.85
2022-10-24T04:31:16.876Z,8.63
2022-10-24T04:33:46.541Z,8.70
2022-10-24T04:36:13.387Z,9.38
2022-10-24T04:38:40.351Z,9.73
2022-10-24T04:41:09.865Z,9.35
2022-10-24T04:43:39.113Z,9.45
2022-10-24T04:46:06.050Z,8.93
2022-10-24T04:48:32.994Z,9.45
2022-10-24T04:50:59.856Z,10.43
2022-10-24T04:53:26.866Z,9.63
2022-10-24T04:55:53.629Z,10.52
2022-10-24T04:58:21.023Z,9.63
2022-10-24T05:00:49.820Z,10.35
2022-10-24T05:03:20.600Z,10.98
2022-10-24T05:05:48.345Z,9.30
2022-10-24T05:08:15.758Z,9.43
2022-10-24T05:10:42.583Z,9.48
2022-10-24T05:13:09.366Z,9.43
2022-10-24T05:15:36.284Z,9.38
2022-10-24T05:18:03.770Z,9.93
2022-10-24T05:20:31.134Z,10.98
2022-10-24T05:22:57.951Z,9.88
2022-10-24T05:25:24.816Z,10.32
2022-10-24T05:27:51.681Z,11.38
2022-10-24T05:30:18.540Z,10.57
2022-10-24T05:32:46.361Z,11.30
2022-10-24T05:35:13.578Z,10.77
2022-10-24T05:37:40.439Z,12.38
2022-10-24T05:40:09.658Z,13.07
2022-10-24T05:42:38.592Z,12.60
2022-10-24T05:45:07.379Z,11.60
2022-10-24T05:47:34.365Z,10.68
2022-10-24T05:50:01.092Z,11.95
2022-10-24T05:52:28.077Z,13.48
2022-10-24T05:54:55.790Z,12.35
2022-10-24T05:57:33.736Z,13.63
2022-10-24T06:00:00.971Z,14.18
2022-10-24T06:02:27.966Z,12.05
2022-10-24T06:04:56.181Z,11.77
2022-10-24T06:07:23.398Z,11.90
2022-10-24T06:09:50.276Z,12.20
2022-10-24T06:12:17.233Z,11.10
2022-10-24T06:14:44.838Z,10.77
2022-10-24T06:17:14.854Z,11.30
2022-10-24T06:19:41.796Z,10.85
2022-10-24T06:22:10.283Z,9.65
2022-10-24T06:24:38.309Z,11.02
2022-10-24T06:27:06.151Z,11.75
2022-10-24T06:29:33.435Z,11.60
2022-10-24T06:32:00.414Z,11.65
2022-10-24T06:34:27.833Z,11.65
2022-10-24T06:36:54.836Z,11.65
2022-10-24T06:39:21.668Z,11.07
2022-10-24T06:41:48.413Z,12.13
2022-10-24T06:44:15.427Z,11.85
2022-10-24T06:46:42.204Z,12.48
2022-10-24T06:49:10.006Z,12.48
2022-10-24T06:51:36.821Z,11.95
2022-10-24T06:54:03.723Z,11.05
2022-10-24T06:56:30.489Z,11.55
2022-10-24T06:58:57.411Z,11.18
2022-10-24T07:01:25.964Z,11.80
2022-10-24T07:03:53.855Z,12.13
2022-10-24T07:08:58.266Z,12.18
2022-10-24T07:11:26.043Z,12.90
2022-10-24T07:13:55.303Z,11.73
2022-10-24T07:16:25.323Z,12.98
2022-10-24T07:18:52.405Z,13.43
2022-10-24T07:21:22.926Z,13.75
2022-10-24T07:23:51.773Z,12.82
2022-10-24T07:26:19.762Z,13.75
2022-10-24T07:28:47.698Z,13.82
2022-10-24T07:31:18.058Z,14.20
2022-10-24T07:33:45.091Z,13.40
2022-10-24T07:36:19.971Z,14.85
2022-10-24T07:38:51.022Z,14.03
2022-10-24T07:41:18.682Z,15.73
2022-10-24T07:43:46.249Z,15.57
2022-10-24T07:46:15.489Z,16.75
2022-10-24T07:48:45.170Z,17.52
2022-10-24T07:51:14.676Z,16.88
2022-10-24T07:53:42.344Z,16.48
2022-10-24T07:56:13.243Z,16.30
2022-10-24T07:58:40.777Z,16.95
2022-10-24T08:01:10.601Z,16.23
2022-10-24T08:03:37.672Z,16.10
2022-10-24T08:06:06.029Z,15.23
2022-10-24T08:08:37.106Z,16.27
2022-10-24T08:11:19.311Z,15.10
2022-10-24T08:13:46.198Z,16.15
2022-10-24T08:16:15.171Z,16.55
2022-10-24T08:18:42.300Z,17.33
2022-10-24T08:21:12.450Z,17.70
2022-10-24T08:23:42.345Z,17.75
2022-10-24T08:26:12.187Z,18.50
2022-10-24T08:28:39.584Z,18.30
2022-10-24T08:31:10.352Z,18.05
2022-10-24T08:33:37.188Z,17.08
2022-10-24T08:36:11.858Z,17.73
2022-10-24T08:38:38.711Z,17.70
2022-10-24T08:41:06.968Z,17.65
2022-10-24T08:43:33.768Z,17.83
2022-10-24T08:46:12.453Z,16.80
2022-10-24T08:48:49.878Z,17.98
2022-10-24T08:59:37.868Z,15.63
2022-10-24T09:02:21.383Z,16.48
2022-10-24T09:05:11.221Z,16.10
2022-10-24T09:07:38.579Z,13.82
2022-10-24T09:10:15.662Z,13.85
2022-10-24T09:12:42.486Z,13.50
2022-10-24T09:15:28.537Z,13.85
2022-10-24T09:17:57.017Z,14.02
2022-10-24T09:20:30.515Z,15.13
2022-10-24T09:23:00.619Z,14.13
2022-10-24T09:25:31.823Z,13.02
2022-10-24T09:28:01.374Z,13.93
2022-10-24T09:30:31.629Z,13.27
2022-10-24T09:33:24.319Z,13.48
2022-10-24T09:35:54.170Z,12.80
2022-10-24T09:38:25.468Z,13.73
2022-10-24T09:40:55.640Z,14.43
2022-10-24T09:43:31.792Z,17.58
2022-10-24T09:46:04.775Z,15.57
2022-10-24T09:48:56.865Z,16.65
2022-10-24T09:51:28.262Z,17.20
2022-10-24T09:54:07.154Z,15.90
2022-10-24T09:56:40.127Z,14.23
2022-10-24T09:59:18.976Z,14.63
2022-10-24T10:01:46.187Z,14.98
2022-10-24T10:04:18.456Z,14.38
2022-10-24T10:06:50.194Z,13.32
2022-10-24T10:09:26.382Z,13.55
2022-10-24T10:12:05.048Z,14.77
2022-10-24T10:14:32.582Z,15.45
2022-10-24T10:17:05.714Z,13.35
2022-10-24T10:19:37.130Z,13.27
2022-10-24T10:22:21.272Z,12.65
2022-10-24T10:24:48.322Z,11.80
2022-10-24T10:27:39.395Z,12.48
2022-10-24T10:30:12.414Z,13.05
2022-10-24T10:32:41.967Z,13.20
2022-10-24T10:35:24.501Z,12.90
2022-10-24T10:38:16.215Z,13.43
2022-10-24T10:40:53.612Z,13.85
2022-10-24T10:43:52.264Z,13.85
2022-10-24T10:46:24.770Z,13.60
2022-10-24T10:49:03.106Z,14.57
2022-10-24T10:51:39.227Z,14.80
2022-10-24T10:54:44.054Z,15.18
2022-10-24T10:57:22.338Z,14.88
2022-10-24T11:00:09.634Z,13.95
2022-10-24T11:02:39.706Z,13.57
2022-10-24T11:05:22.196Z,12.38
2022-10-24T11:08:14.830Z,14.45
2022-10-24T11:11:07.850Z,14.27
2022-10-24T11:13:40.527Z,13.82
2022-10-24T11:16:14.348Z,13.93
2022-10-24T11:18:45.417Z,13.13
2022-10-24T11:21:14.706Z,13.32
2022-10-24T11:23:53.530Z,12.38
2022-10-24T11:26:23.689Z,13.07
2022-10-24T11:29:22.718Z,12.85
2022-10-24T11:31:55.443Z,12.18
2022-10-24T11:34:28.959Z,11.95
2022-10-24T11:37:06.142Z,11.55
2022-10-24T11:39:34.970Z,9.90
2022-10-24T11:42:08.292Z,11.20
2022-10-24T11:44:40.193Z,10.93
2022-10-24T11:47:24.983Z,10.27
2022-10-24T11:50:30.101Z,9.40
2022-10-24T11:53:15.068Z,9.68
2022-10-24T11:55:47.440Z,10.43
2022-10-24T11:58:19.700Z,11.55
2022-10-24T12:00:58.847Z,9.73
2022-10-24T12:03:28.606Z,9.40
2022-10-24T12:06:27.478Z,8.55
2022-10-24T12:09:20.255Z,8.60
2022-10-24T12:12:00.739Z,7.68
2022-10-24T12:14:42.555Z,7.25
2022-10-24T12:17:27.162Z,7.75
2022-10-24T12:19:54.465Z,8.75
2022-10-24T12:22:27.907Z,7.45
2022-10-24T12:25:33.208Z,7.75
2022-10-24T12:28:03.129Z,7.93
2022-10-24T12:30:36.433Z,7.18
2022-10-24T12:33:25.946Z,7.32
2022-10-24T12:35:58.917Z,7.68
2022-10-24T12:38:28.796Z,7.80
2022-10-24T12:41:28.575Z,8.05
2022-10-24T12:44:30.014Z,8.90
2022-10-24T12:46:56.958Z,8.88
2022-10-24T12:49:30.937Z,9.60
2022-10-24T12:51:58.679Z,9.27
2022-10-24T12:54:54.675Z,8.90
2022-10-24T12:57:28.556Z,8.50
2022-10-24T13:00:00.649Z,8.63
2022-10-24T13:02:33.678Z,8.00
2022-10-24T13:05:18.152Z,8.48
2022-10-24T13:08:22.530Z,8.93
2022-10-24T13:10:53.847Z,8.98
2022-10-24T13:13:39.412Z,8.18
2022-10-24T13:16:12.264Z,7.68
2022-10-24T13:19:03.832Z,8.40
2022-10-24T13:21:45.630Z,8.48
2022-10-24T13:24:28.569Z,10.30
2022-10-24T13:26:58.179Z,10.60
2022-10-24T13:29:28.076Z,11.23
2022-10-24T13:32:05.240Z,11.07
2022-10-24T13:34:50.263Z,11.95
2022-10-24T13:37:30.420Z,12.93
2022-10-24T13:40:01.340Z,12.10
2022-10-24T13:43:04.725Z,13.43
2022-10-24T13:45:51.950Z,13.05
2022-10-24T13:48:23.922Z,13.38
2022-10-24T13:51:19.702Z,12.80
2022-10-24T13:53:51.292Z,13.07
2022-10-24T13:56:19.079Z,13.20
2022-10-24T13:58:46.663Z,13.20
2022-10-24T14:01:30.242Z,14.20
2022-10-24T14:03:59.337Z,14.48
2022-10-24T14:06:31.688Z,14.70
2022-10-24T14:09:07.222Z,14.55
2022-10-24T14:14:06.051Z,13.23
2022-10-24T14:16:34.839Z,13.70
2022-10-24T14:19:29.807Z,14.13
2022-10-24T14:21:58.590Z,14.35
2022-10-24T14:24:25.634Z,14.25
2022-10-24T14:26:56.935Z,13.23
2022-10-24T14:29:32.477Z,13.38
2022-10-24T14:32:07.969Z,15.10
2022-10-24T14:34:36.927Z,12.80
2022-10-24T14:37:13.950Z,13.35
2022-10-24T14:39:41.461Z,13.82
2022-10-24T14:42:15.667Z,13.88
2022-10-24T14:44:46.274Z,14.27
2022-10-24T14:47:26.685Z,14.75
2022-10-24T14:49:53.721Z,15.23
2022-10-24T14:52:26.088Z,16.20
2022-10-24T14:55:04.379Z,17.42
2022-10-24T14:57:32.956Z,16.17
2022-10-24T15:00:07.603Z,16.52
2022-10-24T15:02:42.902Z,15.50
2022-10-24T15:07:57.168Z,17.30
2022-10-24T15:10:37.262Z,16.88
2022-10-24T15:13:14.925Z,15.82
2022-10-24T15:15:44.469Z,16.65
2022-10-24T15:18:30.677Z,16.50
2022-10-24T15:21:04.916Z,17.30
2022-10-24T15:23:37.435Z,17.77
2022-10-24T15:26:10.639Z,17.80
2022-10-24T15:28:45.449Z,17.83
2022-10-24T15:31:14.444Z,16.67
2022-10-24T15:33:41.296Z,18.52
2022-10-24T15:36:20.001Z,19.38
2022-10-24T15:38:48.552Z,22.65
2022-10-24T15:41:16.424Z,20.58
2022-10-24T15:43:43.271Z,19.55
2022-10-24T15:46:10.026Z,19.35
2022-10-24T15:48:39.368Z,20.73
2022-10-24T15:51:06.322Z,19.70
2022-10-24T15:53:33.237Z,19.38
2022-10-24T15:55:59.986Z,21.15
2022-10-24T15:58:28.774Z,19.98
2022-10-24T16:00:55.730Z,20.20
2022-10-24T16:03:23.756Z,20.63
2022-10-24T16:05:56.066Z,22.25
2022-10-24T16:08:24.100Z,21.92
2022-10-24T16:10:52.397Z,23.58
2022-10-24T16:13:21.629Z,23.35
2022-10-24T16:15:49.598Z,21.83
2022-10-24T16:18:17.022Z,22.70
2022-10-24T16:20:44.149Z,24.42
2022-10-24T16:23:13.758Z,23.35
2022-10-24T16:25:40.755Z,23.40
2022-10-24T16:28:08.152Z,23.73
2022-10-24T16:30:38.020Z,23.17
2022-10-24T16:33:05.463Z,23.52
2022-10-24T16:35:34.672Z,23.75
2022-10-24T16:38:02.707Z,26.08
2022-10-24T16:40:30.286Z,24.65
2022-10-24T16:43:00.187Z,24.50
2022-10-24T16:45:27.263Z,25.77
2022-10-24T16:47:54.057Z,26.02
2022-10-24T16:50:24.765Z,25.73
2022-10-24T16:52:56.771Z,25.98
2022-10-24T16:55:23.622Z,26.17
2022-10-24T16:57:50.439Z,27.13
2022-10-24T17:00:19.193Z,28.17
2022-10-24T17:02:51.307Z,28.77
2022-10-24T17:05:20.067Z,29.77
2022-10-24T17:07:47.287Z,28.42
2022-10-24T17:10:14.716Z,29.23
2022-10-24T17:12:43.367Z,29.27
2022-10-24T17:15:11.697Z,29.58
2022-10-24T17:17:39.928Z,30.85
2022-10-24T17:20:09.849Z,32.45
2022-10-24T17:22:37.935Z,32.42
2022-10-24T17:25:06.245Z,32.13
2022-10-24T17:27:33.254Z,32.65
2022-10-24T17:30:00.141Z,33.25
2022-10-24T17:32:27.070Z,33.08
2022-10-24T17:34:55.326Z,30.55
2022-10-24T17:37:32.879Z,32.08
2022-10-24T17:40:04.856Z,30.27
2022-10-24T17:42:31.863Z,31.67
2022-10-24T17:44:58.773Z,30.10
2022-10-24T17:47:25.687Z,31.05
2022-10-24T17:49:52.444Z,28.00
2022-10-24T17:52:23.726Z,29.13
2022-10-24T17:54:51.071Z,27.30
2022-10-24T17:57:17.917Z,25.38
2022-10-24T17:59:44.871Z,25.95
2022-10-24T18:02:13.947Z,24.98
2022-10-24T18:04:42.881Z,26.10
2022-10-24T18:07:09.982Z,25.75
2022-10-24T18:09:39.112Z,26.48
2022-10-24T18:12:06.689Z,27.25
2022-10-24T18:14:35.841Z,28.27
2022-10-24T18:17:02.765Z,26.05
2022-10-24T18:19:29.595Z,25.85
2022-10-24T18:21:56.485Z,26.63
2022-10-24T18:24:23.224Z,26.38
2022-10-24T18:26:49.992Z,26.38
2022-10-24T18:29:16.819Z,26.35
2022-10-24T18:31:43.637Z,28.00
2022-10-24T18:34:10.494Z,24.65
2022-10-24T18:36:37.448Z,25.42
2022-10-24T18:39:05.564Z,24.60
2022-10-24T18:41:48.551Z,24.38
2022-10-24T18:44:25.432Z,23.55
2022-10-24T18:46:53.947Z,24.35
2022-10-24T18:49:21.045Z,24.50
2022-10-24T18:52:03.941Z,25.83
2022-10-24T18:54:30.997Z,25.98
2022-10-24T18:56:59.099Z,25.15
2022-10-24T18:59:26.151Z,26.02
2022-10-24T19:02:25.839Z,25.33
2022-10-24T19:05:18.611Z,26.55
2022-10-24T19:07:46.323Z,26.35
2022-10-24T19:10:25.904Z,27.08
2022-10-24T19:12:54.455Z,25.40
2022-10-24T19:15:21.985Z,26.88
2022-10-24T19:17:50.957Z,26.23
2022-10-24T19:20:23.513Z,25.25
2022-10-24T19:22:51.065Z,24.38
2022-10-24T19:25:18.030Z,25.65
2022-10-24T19:27:44.993Z,25.60
2022-10-24T19:30:12.728Z,25.63
2022-10-24T19:32:39.571Z,23.70
2022-10-24T19:35:06.904Z,24.90
2022-10-24T19:37:33.788Z,25.52
2022-10-24T19:40:00.617Z,25.98
2022-10-24T19:42:27.497Z,26.98
2022-10-24T19:44:56.458Z,26.73
2022-10-24T19:47:23.459Z,25.60
2022-10-24T19:49:50.290Z,24.98
2022-10-24T19:52:17.253Z,26.70
2022-10-24T19:54:44.593Z,27.17
2022-10-24T19:57:11.914Z,26.40
2022-10-24T19:59:38.780Z,26.60
2022-10-24T20:02:05.897Z,29.00
2022-10-24T20:04:33.624Z,27.00
2022-10-24T20:07:00.428Z,26.88
2022-10-24T20:09:27.169Z,28.30
2022-10-24T20:11:53.907Z,25.63
2022-10-24T20:14:20.757Z,26.80
2022-10-24T20:16:47.505Z,26.65
2022-10-24T20:19:14.316Z,27.38
2022-10-24T20:21:41.137Z,28.27
2022-10-24T20:24:08.251Z,27.73
2022-10-24T20:26:35.212Z,27.15
2022-10-24T20:29:03.584Z,28.50
2022-10-24T20:31:36.553Z,28.02
2022-10-24T20:34:09.578Z,28.73
2022-10-24T20:36:38.345Z,28.00
2022-10-24T20:39:06.898Z,30.02
2022-10-24T20:41:35.006Z,28.98
2022-10-24T20:44:02.660Z,29.58
2022-10-24T20:46:29.499Z,30.30
2022-10-24T20:48:56.976Z,28.73
2022-10-24T20:51:23.789Z,30.10
2022-10-24T20:53:50.638Z,29.13
2022-10-24T20:56:22.092Z,29.42
2022-10-24T20:58:50.941Z,26.88
2022-10-24T21:01:23.420Z,29.50
2022-10-24T21:03:51.644Z,28.15
2022-10-24T21:06:21.125Z,29.23
2022-10-24T21:08:49.236Z,28.67
2022-10-24T21:11:18.396Z,29.25
2022-10-24T21:13:45.727Z,29.33
2022-10-24T21:16:13.302Z,30.00
2022-10-24T21:18:40.369Z,29.90
2022-10-24T21:21:12.239Z,30.85
2022-10-24T21:23:39.316Z,31.08
2022-10-24T21:26:09.020Z,31.05
2022-10-24T21:28:36.636Z,30.58
2022-10-24T21:31:11.906Z,32.95
2022-10-24T21:33:41.330Z,31.67
2022-10-24T21:36:20.056Z,30.55
2022-10-24T21:38:48.557Z,31.15
2022-10-24T21:41:15.986Z,30.63
2022-10-24T21:43:43.140Z,30.77
2022-10-24T21:46:12.929Z,31.50
2022-10-24T21:48:41.110Z,32.05
2022-10-24T21:51:13.863Z,30.08
2022-10-24T21:53:43.118Z,30.80
2022-10-24T21:56:13.359Z,30.90
2022-10-24T21:58:40.883Z,30.48
2022-10-24T22:01:16.349Z,29.92
2022-10-24T22:03:43.573Z,29.58
2022-10-24T22:06:12.512Z,29.80
2022-10-24T22:08:39.355Z,29.00
2022-10-24T22:11:09.120Z,30.92
2022-10-24T22:13:36.780Z,29.52
2022-10-24T22:16:05.280Z,28.90
2022-10-24T22:18:32.953Z,29.83
2022-10-24T22:21:01.581Z,28.35
2022-10-24T22:23:29.097Z,29.90
2022-10-24T22:25:56.091Z,30.13
2022-10-24T22:28:22.843Z,29.92
2022-10-24T22:30:49.893Z,30.00
2022-10-24T22:33:23.804Z,29.65
2022-10-24T22:35:58.101Z,28.13
2022-10-24T22:38:25.149Z,30.08
2022-10-24T22:43:24.227Z,28.77
2022-10-24T22:46:05.364Z,27.60
2022-10-24T22:48:35.945Z,28.95
2022-10-24T22:51:02.912Z,27.73
2022-10-24T22:53:31.168Z,26.83
2022-10-24T22:56:13.484Z,27.80
2022-10-24T22:58:42.510Z,27.05
2022-10-24T23:01:27.678Z,27.10
2022-10-24T23:04:15.731Z,27.58
2022-10-24T23:07:20.557Z,27.17
2022-10-24T23:09:48.269Z,25.83
2022-10-24T23:12:17.244Z,26.08
2022-10-24T23:14:45.113Z,27.15
2022-10-24T23:17:28.444Z,27.55
2022-10-24T23:19:56.831Z,26.83
2022-10-24T23:22:27.724Z,26.30
2022-10-24T23:24:57.867Z,28.13
2022-10-24T23:27:39.901Z,28.15
2022-10-24T23:30:22.084Z,27.30
2022-10-24T23:32:50.752Z,27.60
2022-10-24T23:35:19.859Z,27.05
2022-10-24T23:37:49.557Z,26.52
2022-10-24T23:40:33.586Z,26.73
2022-10-24T23:43:01.640Z,26.85
2022-10-24T23:45:47.936Z,26.55
2022-10-24T23:50:53.172Z,25.05
2022-10-24T23:53:50.277Z,24.42
2022-10-24T23:56:19.424Z,26.02
2022-10-24T23:58:46.472Z,24.20
